sensor_id;sensor_type;location;lat;lon;timestamp;temperature;humidity
318;DHT22;146;53.448;10.228;2023-04-25T00:00:30;8.30;1.00
318;DHT22;146;53.448;10.228;2023-04-25T00:02:58;8.30;1.00
318;DHT22;146;53.448;10.228;2023-04-25T00:05:25;8.20;1.00
318;DHT22;146;53.448;10.228;2023-04-25T00:07:55;8.20;1.00
318;DHT22;146;53.448;10.228;2023-04-25T00:10:33;8.20;1.00
318;DHT22;146;53.448;10.228;2023-04-25T00:13:00;8.20;1.00
318;DHT22;146;53.448;10.228;2023-04-25T00:15:28;8.20;1.00
318;DHT22;146;53.448;10.228;2023-04-25T00:17:57;8.20;1.00
318;DHT22;146;53.448;10.228;2023-04-25T00:20:31;8.20;1.00
318;DHT22;146;53.448;10.228;2023-04-25T00:22:58;8.20;1.00
318;DHT22;146;53.448;10.228;2023-04-25T00:25:25;8.20;1.00
318;DHT22;146;53.448;10.228;2023-04-25T00:27:55;8.20;1.00
318;DHT22;146;53.448;10.228;2023-04-25T00:30:23;8.20;1.00
318;DHT22;146;53.448;10.228;2023-04-25T00:32:50;8.20;1.00
318;DHT22;146;53.448;10.228;2023-04-25T00:35:18;8.20;1.20
318;DHT22;146;53.448;10.228;2023-04-25T00:37:45;8.20;1.80
318;DHT22;146;53.448;10.228;2023-04-25T00:40:12;8.20;2.40
318;DHT22;146;53.448;10.228;2023-04-25T00:42:39;8.10;2.80
318;DHT22;146;53.448;10.228;2023-04-25T00:45:15;8.00;2.80
318;DHT22;146;53.448;10.228;2023-04-25T00:47:43;8.00;3.20
318;DHT22;146;53.448;10.228;2023-04-25T00:50:11;8.00;3.70
318;DHT22;146;53.448;10.228;2023-04-25T00:52:41;7.90;4.00
318;DHT22;146;53.448;10.228;2023-04-25T00:55:10;7.80;3.70
318;DHT22;146;53.448;10.228;2023-04-25T00:57:37;7.70;3.70
318;DHT22;146;53.448;10.228;2023-04-25T01:00:05;7.70;3.60
318;DHT22;146;53.448;10.228;2023-04-25T01:02:35;7.70;3.50
318;DHT22;146;53.448;10.228;2023-04-25T01:05:03;7.60;3.30
318;DHT22;146;53.448;10.228;2023-04-25T01:07:30;7.60;3.10
318;DHT22;146;53.448;10.228;2023-04-25T01:09:58;7.60;2.80
318;DHT22;146;53.448;10.228;2023-04-25T01:12:25;7.60;2.50
318;DHT22;146;53.448;10.228;2023-04-25T01:14:52;7.60;2.40
318;DHT22;146;53.448;10.228;2023-04-25T01:17:19;7.70;2.50
318;DHT22;146;53.448;10.228;2023-04-25T01:19:46;7.70;2.70
318;DHT22;146;53.448;10.228;2023-04-25T01:22:15;7.70;2.70
318;DHT22;146;53.448;10.228;2023-04-25T01:24:43;7.80;2.90
318;DHT22;146;53.448;10.228;2023-04-25T01:27:10;7.80;3.00
318;DHT22;146;53.448;10.228;2023-04-25T01:29:38;7.90;3.00
318;DHT22;146;53.448;10.228;2023-04-25T01:32:06;7.80;3.00
318;DHT22;146;53.448;10.228;2023-04-25T01:34:33;7.80;2.70
318;DHT22;146;53.448;10.228;2023-04-25T01:37:00;7.70;1.00
318;DHT22;146;53.448;10.228;2023-04-25T01:39:30;7.60;1.00
318;DHT22;146;53.448;10.228;2023-04-25T01:41:59;7.50;1.00
318;DHT22;146;53.448;10.228;2023-04-25T01:44:27;7.40;1.00
318;DHT22;146;53.448;10.228;2023-04-25T01:46:54;7.50;1.00
318;DHT22;146;53.448;10.228;2023-04-25T01:49:21;7.40;1.00
318;DHT22;146;53.448;10.228;2023-04-25T01:51:48;7.40;1.00
318;DHT22;146;53.448;10.228;2023-04-25T01:54:15;7.40;1.00
318;DHT22;146;53.448;10.228;2023-04-25T01:56:43;7.40;1.00
318;DHT22;146;53.448;10.228;2023-04-25T01:59:10;7.40;1.00
318;DHT22;146;53.448;10.228;2023-04-25T02:01:37;7.30;1.00
318;DHT22;146;53.448;10.228;2023-04-25T02:04:04;7.40;1.00
318;DHT22;146;53.448;10.228;2023-04-25T02:06:31;7.40;1.00
318;DHT22;146;53.448;10.228;2023-04-25T02:08:58;7.30;1.00
318;DHT22;146;53.448;10.228;2023-04-25T02:11:25;7.40;1.00
318;DHT22;146;53.448;10.228;2023-04-25T02:13:53;7.30;1.00
318;DHT22;146;53.448;10.228;2023-04-25T02:16:20;7.30;1.00
318;DHT22;146;53.448;10.228;2023-04-25T02:18:47;7.30;1.00
318;DHT22;146;53.448;10.228;2023-04-25T02:21:21;7.20;1.00
318;DHT22;146;53.448;10.228;2023-04-25T02:23:52;7.20;1.00
318;DHT22;146;53.448;10.228;2023-04-25T02:26:19;7.20;1.00
318;DHT22;146;53.448;10.228;2023-04-25T02:28:46;7.30;1.00
318;DHT22;146;53.448;10.228;2023-04-25T02:31:22;7.20;1.00
318;DHT22;146;53.448;10.228;2023-04-25T02:33:50;7.20;1.00
318;DHT22;146;53.448;10.228;2023-04-25T02:36:16;7.30;1.00
318;DHT22;146;53.448;10.228;2023-04-25T02:38:45;7.30;1.00
318;DHT22;146;53.448;10.228;2023-04-25T02:41:12;7.20;1.00
318;DHT22;146;53.448;10.228;2023-04-25T02:43:39;7.20;1.00
318;DHT22;146;53.448;10.228;2023-04-25T02:46:06;7.10;1.00
318;DHT22;146;53.448;10.228;2023-04-25T02:48:36;7.10;1.00
318;DHT22;146;53.448;10.228;2023-04-25T02:51:03;7.00;1.00
318;DHT22;146;53.448;10.228;2023-04-25T02:53:38;7.00;1.00
318;DHT22;146;53.448;10.228;2023-04-25T02:56:07;7.00;1.00
318;DHT22;146;53.448;10.228;2023-04-25T02:58:34;7.00;1.00
318;DHT22;146;53.448;10.228;2023-04-25T03:01:02;7.00;1.00
318;DHT22;146;53.448;10.228;2023-04-25T03:03:29;7.00;1.00
318;DHT22;146;53.448;10.228;2023-04-25T03:05:57;7.00;1.00
318;DHT22;146;53.448;10.228;2023-04-25T03:08:24;7.10;1.00
318;DHT22;146;53.448;10.228;2023-04-25T03:10:52;7.20;1.00
318;DHT22;146;53.448;10.228;2023-04-25T03:13:21;7.10;1.00
318;DHT22;146;53.448;10.228;2023-04-25T03:15:51;7.10;1.00
318;DHT22;146;53.448;10.228;2023-04-25T03:18:17;7.10;1.00
318;DHT22;146;53.448;10.228;2023-04-25T03:20:44;7.00;1.00
318;DHT22;146;53.448;10.228;2023-04-25T03:23:16;7.00;1.00
318;DHT22;146;53.448;10.228;2023-04-25T03:25:43;7.00;1.00
318;DHT22;146;53.448;10.228;2023-04-25T03:28:09;6.90;1.00
318;DHT22;146;53.448;10.228;2023-04-25T03:30:36;6.80;1.00
318;DHT22;146;53.448;10.228;2023-04-25T03:33:03;7.00;1.00
318;DHT22;146;53.448;10.228;2023-04-25T03:35:30;6.90;1.00
318;DHT22;146;53.448;10.228;2023-04-25T03:37:59;6.90;1.00
318;DHT22;146;53.448;10.228;2023-04-25T03:40:28;6.90;1.00
318;DHT22;146;53.448;10.228;2023-04-25T03:42:55;6.90;1.00
318;DHT22;146;53.448;10.228;2023-04-25T03:45:21;6.90;1.00
318;DHT22;146;53.448;10.228;2023-04-25T03:47:51;6.90;1.00
318;DHT22;146;53.448;10.228;2023-04-25T03:50:18;6.90;1.00
318;DHT22;146;53.448;10.228;2023-04-25T03:52:45;6.80;1.00
318;DHT22;146;53.448;10.228;2023-04-25T03:55:12;6.80;1.00
318;DHT22;146;53.448;10.228;2023-04-25T03:57:40;6.70;1.00
318;DHT22;146;53.448;10.228;2023-04-25T04:00:10;6.60;1.00
318;DHT22;146;53.448;10.228;2023-04-25T04:02:37;6.50;1.00
318;DHT22;146;53.448;10.228;2023-04-25T04:05:07;6.50;1.00
318;DHT22;146;53.448;10.228;2023-04-25T04:07:34;6.50;1.00
318;DHT22;146;53.448;10.228;2023-04-25T04:10:05;6.40;1.00
318;DHT22;146;53.448;10.228;2023-04-25T04:12:33;6.40;1.00
318;DHT22;146;53.448;10.228;2023-04-25T04:15:01;6.30;1.00
318;DHT22;146;53.448;10.228;2023-04-25T04:17:29;6.30;1.00
318;DHT22;146;53.448;10.228;2023-04-25T04:19:56;6.30;1.00
318;DHT22;146;53.448;10.228;2023-04-25T04:22:24;6.30;1.00
318;DHT22;146;53.448;10.228;2023-04-25T04:24:51;6.30;1.00
318;DHT22;146;53.448;10.228;2023-04-25T04:27:19;6.30;1.00
318;DHT22;146;53.448;10.228;2023-04-25T04:29:47;6.20;1.00
318;DHT22;146;53.448;10.228;2023-04-25T04:32:16;6.20;1.00
318;DHT22;146;53.448;10.228;2023-04-25T04:34:42;6.20;1.00
318;DHT22;146;53.448;10.228;2023-04-25T04:37:10;6.30;1.00
318;DHT22;146;53.448;10.228;2023-04-25T04:39:38;6.30;1.00
318;DHT22;146;53.448;10.228;2023-04-25T04:42:05;6.20;1.00
318;DHT22;146;53.448;10.228;2023-04-25T04:44:32;6.30;1.00
318;DHT22;146;53.448;10.228;2023-04-25T04:47:00;6.20;1.00
318;DHT22;146;53.448;10.228;2023-04-25T04:49:28;6.20;1.00
318;DHT22;146;53.448;10.228;2023-04-25T04:51:55;6.20;1.00
318;DHT22;146;53.448;10.228;2023-04-25T04:54:22;6.10;1.00
318;DHT22;146;53.448;10.228;2023-04-25T04:56:49;6.20;1.00
318;DHT22;146;53.448;10.228;2023-04-25T04:59:16;6.10;1.00
318;DHT22;146;53.448;10.228;2023-04-25T05:01:43;6.20;1.00
318;DHT22;146;53.448;10.228;2023-04-25T05:04:11;6.10;1.00
318;DHT22;146;53.448;10.228;2023-04-25T05:06:39;6.10;1.00
318;DHT22;146;53.448;10.228;2023-04-25T05:09:06;6.20;1.00
318;DHT22;146;53.448;10.228;2023-04-25T05:11:33;6.20;1.00
318;DHT22;146;53.448;10.228;2023-04-25T05:14:00;6.20;1.00
318;DHT22;146;53.448;10.228;2023-04-25T05:16:27;6.40;1.00
318;DHT22;146;53.448;10.228;2023-04-25T05:18:53;6.50;1.00
318;DHT22;146;53.448;10.228;2023-04-25T05:21:20;6.50;1.00
318;DHT22;146;53.448;10.228;2023-04-25T05:23:49;6.50;1.00
318;DHT22;146;53.448;10.228;2023-04-25T05:26:16;6.60;1.00
318;DHT22;146;53.448;10.228;2023-04-25T05:28:43;6.60;1.00
318;DHT22;146;53.448;10.228;2023-04-25T05:31:13;6.70;1.00
318;DHT22;146;53.448;10.228;2023-04-25T05:33:42;6.70;1.00
318;DHT22;146;53.448;10.228;2023-04-25T05:36:09;6.70;1.00
318;DHT22;146;53.448;10.228;2023-04-25T05:38:36;6.80;1.00
318;DHT22;146;53.448;10.228;2023-04-25T05:41:06;6.70;1.00
318;DHT22;146;53.448;10.228;2023-04-25T05:43:34;6.80;1.00
318;DHT22;146;53.448;10.228;2023-04-25T05:46:01;6.80;1.00
318;DHT22;146;53.448;10.228;2023-04-25T05:48:27;6.70;1.00
318;DHT22;146;53.448;10.228;2023-04-25T05:50:57;6.70;1.00
318;DHT22;146;53.448;10.228;2023-04-25T05:53:28;6.40;1.00
318;DHT22;146;53.448;10.228;2023-04-25T05:56:02;6.30;1.00
318;DHT22;146;53.448;10.228;2023-04-25T05:58:31;6.10;1.00
318;DHT22;146;53.448;10.228;2023-04-25T06:00:59;6.20;1.00
318;DHT22;146;53.448;10.228;2023-04-25T06:03:26;6.30;1.00
318;DHT22;146;53.448;10.228;2023-04-25T06:05:53;6.40;1.00
318;DHT22;146;53.448;10.228;2023-04-25T06:08:20;6.50;1.00
318;DHT22;146;53.448;10.228;2023-04-25T06:10:47;6.70;1.00
318;DHT22;146;53.448;10.228;2023-04-25T06:13:14;6.70;1.00
318;DHT22;146;53.448;10.228;2023-04-25T06:15:42;6.60;1.00
318;DHT22;146;53.448;10.228;2023-04-25T06:18:09;6.60;1.00
318;DHT22;146;53.448;10.228;2023-04-25T06:20:36;6.80;1.00
318;DHT22;146;53.448;10.228;2023-04-25T06:23:02;6.90;1.00
318;DHT22;146;53.448;10.228;2023-04-25T06:25:30;7.00;1.00
318;DHT22;146;53.448;10.228;2023-04-25T06:27:57;7.00;1.00
318;DHT22;146;53.448;10.228;2023-04-25T06:34:20;7.00;1.00
318;DHT22;146;53.448;10.228;2023-04-25T06:36:46;7.00;1.00
318;DHT22;146;53.448;10.228;2023-04-25T06:39:13;7.10;1.00
318;DHT22;146;53.448;10.228;2023-04-25T06:41:40;7.10;1.00
318;DHT22;146;53.448;10.228;2023-04-25T06:44:07;7.10;1.00
318;DHT22;146;53.448;10.228;2023-04-25T06:46:34;7.10;1.00
318;DHT22;146;53.448;10.228;2023-04-25T06:49:01;7.10;1.00
318;DHT22;146;53.448;10.228;2023-04-25T06:51:29;7.20;1.00
318;DHT22;146;53.448;10.228;2023-04-25T06:53:56;7.20;1.00
318;DHT22;146;53.448;10.228;2023-04-25T06:56:23;7.10;1.00
318;DHT22;146;53.448;10.228;2023-04-25T06:58:50;7.10;1.00
318;DHT22;146;53.448;10.228;2023-04-25T07:01:17;7.10;1.00
318;DHT22;146;53.448;10.228;2023-04-25T07:03:44;7.20;1.00
318;DHT22;146;53.448;10.228;2023-04-25T07:06:11;7.20;1.00
318;DHT22;146;53.448;10.228;2023-04-25T07:08:39;7.30;1.00
318;DHT22;146;53.448;10.228;2023-04-25T07:11:05;7.30;1.00
318;DHT22;146;53.448;10.228;2023-04-25T07:13:35;7.40;1.00
318;DHT22;146;53.448;10.228;2023-04-25T07:16:03;7.20;1.00
318;DHT22;146;53.448;10.228;2023-04-25T07:18:30;7.40;1.00
318;DHT22;146;53.448;10.228;2023-04-25T07:20:57;7.40;1.00
318;DHT22;146;53.448;10.228;2023-04-25T07:23:24;7.40;1.00
318;DHT22;146;53.448;10.228;2023-04-25T07:25:52;7.50;1.00
318;DHT22;146;53.448;10.228;2023-04-25T07:28:19;7.60;1.00
318;DHT22;146;53.448;10.228;2023-04-25T07:30:46;7.70;1.00
318;DHT22;146;53.448;10.228;2023-04-25T07:33:13;7.50;1.00
318;DHT22;146;53.448;10.228;2023-04-25T07:35:40;7.60;1.00
318;DHT22;146;53.448;10.228;2023-04-25T07:38:06;7.50;1.00
318;DHT22;146;53.448;10.228;2023-04-25T07:40:33;7.50;1.00
318;DHT22;146;53.448;10.228;2023-04-25T07:43:02;7.50;1.00
318;DHT22;146;53.448;10.228;2023-04-25T07:45:28;7.50;1.00
318;DHT22;146;53.448;10.228;2023-04-25T07:47:55;7.40;1.00
318;DHT22;146;53.448;10.228;2023-04-25T07:50:23;7.60;1.00
318;DHT22;146;53.448;10.228;2023-04-25T07:52:50;7.70;1.00
318;DHT22;146;53.448;10.228;2023-04-25T07:55:16;7.60;1.00
318;DHT22;146;53.448;10.228;2023-04-25T07:57:43;7.60;1.00
318;DHT22;146;53.448;10.228;2023-04-25T08:00:13;7.60;1.00
318;DHT22;146;53.448;10.228;2023-04-25T08:02:40;7.70;1.00
318;DHT22;146;53.448;10.228;2023-04-25T08:05:07;7.70;1.00
318;DHT22;146;53.448;10.228;2023-04-25T08:07:37;7.80;1.00
318;DHT22;146;53.448;10.228;2023-04-25T08:10:05;7.90;1.00
318;DHT22;146;53.448;10.228;2023-04-25T08:12:32;7.80;1.00
318;DHT22;146;53.448;10.228;2023-04-25T08:14:59;7.80;1.00
318;DHT22;146;53.448;10.228;2023-04-25T08:17:27;7.90;1.00
318;DHT22;146;53.448;10.228;2023-04-25T08:19:54;8.00;1.00
318;DHT22;146;53.448;10.228;2023-04-25T08:22:22;7.90;1.00
318;DHT22;146;53.448;10.228;2023-04-25T08:24:49;8.00;1.00
318;DHT22;146;53.448;10.228;2023-04-25T08:27:17;8.10;1.00
318;DHT22;146;53.448;10.228;2023-04-25T08:29:46;8.10;1.00
318;DHT22;146;53.448;10.228;2023-04-25T08:32:13;8.20;1.00
318;DHT22;146;53.448;10.228;2023-04-25T08:34:41;8.30;1.00
318;DHT22;146;53.448;10.228;2023-04-25T08:37:09;8.40;1.00
318;DHT22;146;53.448;10.228;2023-04-25T08:39:36;8.50;1.00
318;DHT22;146;53.448;10.228;2023-04-25T08:42:06;8.50;1.00
318;DHT22;146;53.448;10.228;2023-04-25T08:44:33;8.70;1.00
318;DHT22;146;53.448;10.228;2023-04-25T08:47:01;8.60;1.00
318;DHT22;146;53.448;10.228;2023-04-25T08:49:29;8.70;1.00
318;DHT22;146;53.448;10.228;2023-04-25T08:51:59;8.70;1.00
318;DHT22;146;53.448;10.228;2023-04-25T08:54:27;8.70;1.00
318;DHT22;146;53.448;10.228;2023-04-25T08:56:56;8.80;1.00
318;DHT22;146;53.448;10.228;2023-04-25T08:59:23;9.00;1.00
318;DHT22;146;53.448;10.228;2023-04-25T09:01:50;9.00;1.00
318;DHT22;146;53.448;10.228;2023-04-25T09:04:17;9.10;1.00
318;DHT22;146;53.448;10.228;2023-04-25T09:06:44;8.90;1.00
318;DHT22;146;53.448;10.228;2023-04-25T09:09:12;8.90;1.00
318;DHT22;146;53.448;10.228;2023-04-25T09:11:40;8.90;1.00
318;DHT22;146;53.448;10.228;2023-04-25T09:14:11;8.90;1.00
318;DHT22;146;53.448;10.228;2023-04-25T09:17:00;9.00;1.00
318;DHT22;146;53.448;10.228;2023-04-25T09:19:28;9.00;1.00
318;DHT22;146;53.448;10.228;2023-04-25T09:22:00;9.00;1.00
318;DHT22;146;53.448;10.228;2023-04-25T09:24:33;8.80;1.00
318;DHT22;146;53.448;10.228;2023-04-25T09:27:02;8.20;1.00
318;DHT22;146;53.448;10.228;2023-04-25T09:29:30;7.60;1.00
318;DHT22;146;53.448;10.228;2023-04-25T09:32:16;7.20;1.00
318;DHT22;146;53.448;10.228;2023-04-25T09:34:44;6.90;1.00
318;DHT22;146;53.448;10.228;2023-04-25T09:37:20;6.70;1.00
318;DHT22;146;53.448;10.228;2023-04-25T09:39:50;6.50;1.00
318;DHT22;146;53.448;10.228;2023-04-25T09:42:17;6.50;1.00
318;DHT22;146;53.448;10.228;2023-04-25T09:44:45;6.50;1.00
318;DHT22;146;53.448;10.228;2023-04-25T09:47:13;6.60;1.00
318;DHT22;146;53.448;10.228;2023-04-25T09:49:41;6.70;1.00
318;DHT22;146;53.448;10.228;2023-04-25T09:52:24;6.80;1.00
318;DHT22;146;53.448;10.228;2023-04-25T09:54:53;6.80;1.00
318;DHT22;146;53.448;10.228;2023-04-25T09:57:21;6.80;1.00
318;DHT22;146;53.448;10.228;2023-04-25T09:59:49;6.90;1.00
318;DHT22;146;53.448;10.228;2023-04-25T10:02:17;7.10;1.00
318;DHT22;146;53.448;10.228;2023-04-25T10:04:50;7.10;1.00
318;DHT22;146;53.448;10.228;2023-04-25T10:07:19;7.40;1.00
318;DHT22;146;53.448;10.228;2023-04-25T10:09:48;7.40;1.00
318;DHT22;146;53.448;10.228;2023-04-25T10:12:18;7.40;1.00
318;DHT22;146;53.448;10.228;2023-04-25T10:14:46;7.40;1.00
318;DHT22;146;53.448;10.228;2023-04-25T10:17:14;7.50;1.00
318;DHT22;146;53.448;10.228;2023-04-25T10:19:41;7.70;1.00
318;DHT22;146;53.448;10.228;2023-04-25T10:22:13;7.70;1.00
318;DHT22;146;53.448;10.228;2023-04-25T10:24:41;7.80;1.00
318;DHT22;146;53.448;10.228;2023-04-25T10:27:09;7.90;1.00
318;DHT22;146;53.448;10.228;2023-04-25T10:29:38;8.00;1.00
318;DHT22;146;53.448;10.228;2023-04-25T10:32:05;8.10;1.00
318;DHT22;146;53.448;10.228;2023-04-25T10:34:39;8.20;1.00
318;DHT22;146;53.448;10.228;2023-04-25T10:37:09;8.20;1.00
318;DHT22;146;53.448;10.228;2023-04-25T10:39:38;8.40;1.00
318;DHT22;146;53.448;10.228;2023-04-25T10:42:06;8.50;1.00
318;DHT22;146;53.448;10.228;2023-04-25T10:44:34;8.70;1.00
318;DHT22;146;53.448;10.228;2023-04-25T10:47:02;8.80;1.00
318;DHT22;146;53.448;10.228;2023-04-25T10:49:32;8.70;1.00
318;DHT22;146;53.448;10.228;2023-04-25T10:52:16;8.80;1.00
318;DHT22;146;53.448;10.228;2023-04-25T10:54:47;8.80;1.00
318;DHT22;146;53.448;10.228;2023-04-25T10:57:29;8.80;1.00
318;DHT22;146;53.448;10.228;2023-04-25T11:00:05;8.80;1.00
318;DHT22;146;53.448;10.228;2023-04-25T11:02:41;9.00;1.00
318;DHT22;146;53.448;10.228;2023-04-25T11:05:08;9.10;1.00
318;DHT22;146;53.448;10.228;2023-04-25T11:07:39;9.20;1.00
318;DHT22;146;53.448;10.228;2023-04-25T11:10:10;9.30;1.00
318;DHT22;146;53.448;10.228;2023-04-25T11:12:37;9.10;1.00
318;DHT22;146;53.448;10.228;2023-04-25T11:15:06;8.90;1.00
318;DHT22;146;53.448;10.228;2023-04-25T11:17:33;8.80;1.00
318;DHT22;146;53.448;10.228;2023-04-25T11:20:02;8.60;1.00
318;DHT22;146;53.448;10.228;2023-04-25T11:22:33;8.50;1.00
318;DHT22;146;53.448;10.228;2023-04-25T11:25:05;8.30;1.00
318;DHT22;146;53.448;10.228;2023-04-25T11:27:32;8.30;1.00
318;DHT22;146;53.448;10.228;2023-04-25T11:29:59;8.30;1.00
318;DHT22;146;53.448;10.228;2023-04-25T11:32:27;8.30;1.00
318;DHT22;146;53.448;10.228;2023-04-25T11:34:54;8.40;1.00
318;DHT22;146;53.448;10.228;2023-04-25T11:37:22;8.60;1.00
318;DHT22;146;53.448;10.228;2023-04-25T11:39:49;8.60;1.00
318;DHT22;146;53.448;10.228;2023-04-25T11:42:16;8.50;1.00
318;DHT22;146;53.448;10.228;2023-04-25T11:44:43;8.50;1.00
318;DHT22;146;53.448;10.228;2023-04-25T11:47:10;8.50;1.00
318;DHT22;146;53.448;10.228;2023-04-25T11:49:37;8.60;1.00
318;DHT22;146;53.448;10.228;2023-04-25T11:52:06;8.80;1.00
318;DHT22;146;53.448;10.228;2023-04-25T11:54:36;8.90;1.00
318;DHT22;146;53.448;10.228;2023-04-25T11:57:04;9.30;1.00
318;DHT22;146;53.448;10.228;2023-04-25T11:59:30;9.60;1.00
318;DHT22;146;53.448;10.228;2023-04-25T12:01:57;9.30;1.00
318;DHT22;146;53.448;10.228;2023-04-25T12:04:30;8.50;1.00
318;DHT22;146;53.448;10.228;2023-04-25T12:06:57;7.90;1.00
318;DHT22;146;53.448;10.228;2023-04-25T12:09:30;7.60;1.00
318;DHT22;146;53.448;10.228;2023-04-25T12:12:00;7.40;1.00
318;DHT22;146;53.448;10.228;2023-04-25T12:14:30;7.40;1.00
318;DHT22;146;53.448;10.228;2023-04-25T12:16:58;7.50;1.00
318;DHT22;146;53.448;10.228;2023-04-25T12:19:25;7.60;1.00
318;DHT22;146;53.448;10.228;2023-04-25T12:21:52;7.80;1.00
318;DHT22;146;53.448;10.228;2023-04-25T12:24:22;7.90;1.00
318;DHT22;146;53.448;10.228;2023-04-25T12:26:52;8.10;1.00
318;DHT22;146;53.448;10.228;2023-04-25T12:29:22;8.30;1.00
318;DHT22;146;53.448;10.228;2023-04-25T12:31:50;8.40;1.00
318;DHT22;146;53.448;10.228;2023-04-25T12:34:17;8.60;1.00
318;DHT22;146;53.448;10.228;2023-04-25T12:36:44;8.80;1.00
318;DHT22;146;53.448;10.228;2023-04-25T12:39:15;8.90;1.00
318;DHT22;146;53.448;10.228;2023-04-25T12:41:43;9.10;1.00
318;DHT22;146;53.448;10.228;2023-04-25T12:44:10;9.40;1.00
318;DHT22;146;53.448;10.228;2023-04-25T12:46:38;9.50;1.00
318;DHT22;146;53.448;10.228;2023-04-25T12:49:06;9.60;1.00
318;DHT22;146;53.448;10.228;2023-04-25T12:51:33;9.60;1.00
318;DHT22;146;53.448;10.228;2023-04-25T12:54:01;9.60;1.00
318;DHT22;146;53.448;10.228;2023-04-25T12:56:28;9.60;1.00
318;DHT22;146;53.448;10.228;2023-04-25T12:58:55;9.40;1.00
318;DHT22;146;53.448;10.228;2023-04-25T13:01:22;9.20;1.00
318;DHT22;146;53.448;10.228;2023-04-25T13:03:50;9.10;1.00
318;DHT22;146;53.448;10.228;2023-04-25T13:06:18;8.80;1.00
318;DHT22;146;53.448;10.228;2023-04-25T13:08:45;8.80;1.00
318;DHT22;146;53.448;10.228;2023-04-25T13:11:12;8.80;1.00
318;DHT22;146;53.448;10.228;2023-04-25T13:13:40;8.90;1.00
318;DHT22;146;53.448;10.228;2023-04-25T13:16:07;9.20;1.00
318;DHT22;146;53.448;10.228;2023-04-25T13:18:35;9.40;1.00
318;DHT22;146;53.448;10.228;2023-04-25T13:21:03;9.50;1.00
318;DHT22;146;53.448;10.228;2023-04-25T13:23:30;9.50;1.00
318;DHT22;146;53.448;10.228;2023-04-25T13:25:57;9.40;1.00
318;DHT22;146;53.448;10.228;2023-04-25T13:28:24;9.30;1.00
318;DHT22;146;53.448;10.228;2023-04-25T13:30:51;8.90;1.00
318;DHT22;146;53.448;10.228;2023-04-25T13:33:18;8.70;1.00
318;DHT22;146;53.448;10.228;2023-04-25T13:35:46;8.60;1.00
318;DHT22;146;53.448;10.228;2023-04-25T13:38:20;8.50;1.00
318;DHT22;146;53.448;10.228;2023-04-25T13:40:48;8.50;1.00
318;DHT22;146;53.448;10.228;2023-04-25T13:43:18;8.40;1.00
318;DHT22;146;53.448;10.228;2023-04-25T13:45:45;8.30;1.00
318;DHT22;146;53.448;10.228;2023-04-25T13:48:11;8.20;1.00
318;DHT22;146;53.448;10.228;2023-04-25T13:50:38;8.10;1.00
318;DHT22;146;53.448;10.228;2023-04-25T13:53:05;8.00;1.00
318;DHT22;146;53.448;10.228;2023-04-25T13:55:34;8.00;1.00
318;DHT22;146;53.448;10.228;2023-04-25T13:58:00;8.20;1.00
318;DHT22;146;53.448;10.228;2023-04-25T14:00:33;8.30;1.00
318;DHT22;146;53.448;10.228;2023-04-25T14:03:00;8.40;1.00
318;DHT22;146;53.448;10.228;2023-04-25T14:05:30;8.40;1.00
318;DHT22;146;53.448;10.228;2023-04-25T14:07:57;8.40;1.00
318;DHT22;146;53.448;10.228;2023-04-25T14:10:25;8.50;1.00
318;DHT22;146;53.448;10.228;2023-04-25T14:12:53;8.80;1.00
318;DHT22;146;53.448;10.228;2023-04-25T14:15:20;9.00;1.00
318;DHT22;146;53.448;10.228;2023-04-25T14:17:47;9.00;1.00
318;DHT22;146;53.448;10.228;2023-04-25T14:20:14;8.80;1.00
318;DHT22;146;53.448;10.228;2023-04-25T14:22:41;8.50;1.00
318;DHT22;146;53.448;10.228;2023-04-25T14:25:09;8.10;1.00
318;DHT22;146;53.448;10.228;2023-04-25T14:27:36;7.90;1.00
318;DHT22;146;53.448;10.228;2023-04-25T14:30:05;7.60;1.00
318;DHT22;146;53.448;10.228;2023-04-25T14:32:32;7.40;1.00
318;DHT22;146;53.448;10.228;2023-04-25T14:34:59;7.40;1.00
318;DHT22;146;53.448;10.228;2023-04-25T14:37:26;7.40;1.00
318;DHT22;146;53.448;10.228;2023-04-25T14:39:52;7.40;1.00
318;DHT22;146;53.448;10.228;2023-04-25T14:42:19;7.60;1.00
318;DHT22;146;53.448;10.228;2023-04-25T14:44:46;7.60;1.00
318;DHT22;146;53.448;10.228;2023-04-25T14:47:14;7.70;1.00
318;DHT22;146;53.448;10.228;2023-04-25T14:49:41;8.00;1.00
318;DHT22;146;53.448;10.228;2023-04-25T14:52:08;8.20;1.00
318;DHT22;146;53.448;10.228;2023-04-25T14:54:35;8.30;1.00
318;DHT22;146;53.448;10.228;2023-04-25T14:57:01;8.40;1.00
318;DHT22;146;53.448;10.228;2023-04-25T14:59:28;8.40;1.00
318;DHT22;146;53.448;10.228;2023-04-25T15:01:55;8.40;1.00
318;DHT22;146;53.448;10.228;2023-04-25T15:04:24;8.50;1.00
318;DHT22;146;53.448;10.228;2023-04-25T15:06:51;8.40;1.00
318;DHT22;146;53.448;10.228;2023-04-25T15:09:17;8.30;1.00
318;DHT22;146;53.448;10.228;2023-04-25T15:11:44;8.10;1.00
318;DHT22;146;53.448;10.228;2023-04-25T15:14:11;8.10;1.00
318;DHT22;146;53.448;10.228;2023-04-25T15:16:38;8.30;1.00
318;DHT22;146;53.448;10.228;2023-04-25T15:19:05;8.40;1.00
318;DHT22;146;53.448;10.228;2023-04-25T15:21:34;8.50;1.00
318;DHT22;146;53.448;10.228;2023-04-25T15:24:01;8.60;1.00
318;DHT22;146;53.448;10.228;2023-04-25T15:26:27;8.80;1.00
318;DHT22;146;53.448;10.228;2023-04-25T15:28:54;8.90;1.00
318;DHT22;146;53.448;10.228;2023-04-25T15:31:22;8.90;1.00
318;DHT22;146;53.448;10.228;2023-04-25T15:33:49;9.00;1.00
318;DHT22;146;53.448;10.228;2023-04-25T15:36:15;9.10;1.00
318;DHT22;146;53.448;10.228;2023-04-25T15:38:45;9.00;1.00
318;DHT22;146;53.448;10.228;2023-04-25T15:41:12;8.80;1.00
318;DHT22;146;53.448;10.228;2023-04-25T15:43:39;8.50;1.00
318;DHT22;146;53.448;10.228;2023-04-25T15:46:05;8.20;1.00
318;DHT22;146;53.448;10.228;2023-04-25T15:48:32;8.10;1.00
318;DHT22;146;53.448;10.228;2023-04-25T15:50:59;8.00;1.00
318;DHT22;146;53.448;10.228;2023-04-25T15:53:26;8.20;1.00
318;DHT22;146;53.448;10.228;2023-04-25T15:55:54;8.30;1.00
318;DHT22;146;53.448;10.228;2023-04-25T15:58:21;8.50;1.00
318;DHT22;146;53.448;10.228;2023-04-25T16:00:48;8.50;1.00
318;DHT22;146;53.448;10.228;2023-04-25T16:03:16;8.60;1.00
318;DHT22;146;53.448;10.228;2023-04-25T16:05:43;8.60;1.00
318;DHT22;146;53.448;10.228;2023-04-25T16:08:09;8.60;1.00
318;DHT22;146;53.448;10.228;2023-04-25T16:10:36;8.50;1.00
318;DHT22;146;53.448;10.228;2023-04-25T16:13:05;8.30;1.00
318;DHT22;146;53.448;10.228;2023-04-25T16:15:31;8.20;1.00
318;DHT22;146;53.448;10.228;2023-04-25T16:17:58;8.10;1.00
318;DHT22;146;53.448;10.228;2023-04-25T16:20:29;8.00;1.00
318;DHT22;146;53.448;10.228;2023-04-25T16:22:57;7.90;1.00
318;DHT22;146;53.448;10.228;2023-04-25T16:25:24;7.90;1.00
318;DHT22;146;53.448;10.228;2023-04-25T16:27:52;7.70;1.00
318;DHT22;146;53.448;10.228;2023-04-25T16:30:20;7.60;1.00
318;DHT22;146;53.448;10.228;2023-04-25T16:32:47;7.60;1.00
318;DHT22;146;53.448;10.228;2023-04-25T16:35:14;7.50;1.00
318;DHT22;146;53.448;10.228;2023-04-25T16:37:41;7.60;1.00
318;DHT22;146;53.448;10.228;2023-04-25T16:40:09;7.60;1.00
318;DHT22;146;53.448;10.228;2023-04-25T16:42:36;7.80;1.00
318;DHT22;146;53.448;10.228;2023-04-25T16:45:04;7.80;1.00
318;DHT22;146;53.448;10.228;2023-04-25T16:47:32;7.80;1.00
318;DHT22;146;53.448;10.228;2023-04-25T16:49:59;7.90;1.00
318;DHT22;146;53.448;10.228;2023-04-25T16:52:26;7.90;1.00
318;DHT22;146;53.448;10.228;2023-04-25T16:54:52;7.90;1.00
318;DHT22;146;53.448;10.228;2023-04-25T16:57:19;7.90;1.00
318;DHT22;146;53.448;10.228;2023-04-25T16:59:46;7.90;1.00